sensor_id;sensor_type;location;lat;lon;timestamp;P1;durP1;ratioP1;P2;durP2;ratioP2
48871;SDS011;36154;51.674;7.824;2023-12-22T00:00:16;1.95;;;0.80;;
48871;SDS011;36154;51.674;7.824;2023-12-22T00:02:42;1.38;;;0.90;;
48871;SDS011;36154;51.674;7.824;2023-12-22T00:05:07;1.33;;;1.00;;
48871;SDS011;36154;51.674;7.824;2023-12-22T00:07:32;2.00;;;0.80;;
48871;SDS011;36154;51.674;7.824;2023-12-22T00:09:57;1.55;;;0.85;;
48871;SDS011;36154;51.674;7.824;2023-12-22T00:12:23;0.73;;;0.55;;
48871;SDS011;36154;51.674;7.824;2023-12-22T00:14:48;1.20;;;0.82;;
48871;SDS011;36154;51.674;7.824;2023-12-22T00:17:13;4.22;;;1.05;;
48871;SDS011;36154;51.674;7.824;2023-12-22T00:19:38;2.42;;;1.00;;
48871;SDS011;36154;51.674;7.824;2023-12-22T00:22:04;1.80;;;1.15;;
48871;SDS011;36154;51.674;7.824;2023-12-22T00:24:29;2.95;;;0.90;;
48871;SDS011;36154;51.674;7.824;2023-12-22T00:26:54;1.15;;;0.70;;
48871;SDS011;36154;51.674;7.824;2023-12-22T00:29:20;1.20;;;0.70;;
48871;SDS011;36154;51.674;7.824;2023-12-22T00:31:45;1.55;;;0.95;;
48871;SDS011;36154;51.674;7.824;2023-12-22T00:34:10;1.13;;;0.80;;
48871;SDS011;36154;51.674;7.824;2023-12-22T00:36:36;1.08;;;0.77;;
48871;SDS011;36154;51.674;7.824;2023-12-22T00:39:01;1.10;;;0.70;;
48871;SDS011;36154;51.674;7.824;2023-12-22T00:41:26;1.73;;;0.60;;
48871;SDS011;36154;51.674;7.824;2023-12-22T00:43:52;0.90;;;0.60;;
48871;SDS011;36154;51.674;7.824;2023-12-22T00:46:17;2.30;;;0.88;;
48871;SDS011;36154;51.674;7.824;2023-12-22T00:48:42;1.15;;;0.60;;
48871;SDS011;36154;51.674;7.824;2023-12-22T00:51:07;0.98;;;0.70;;
48871;SDS011;36154;51.674;7.824;2023-12-22T00:53:33;1.42;;;0.70;;
48871;SDS011;36154;51.674;7.824;2023-12-22T00:55:59;0.70;;;0.50;;
48871;SDS011;36154;51.674;7.824;2023-12-22T00:58:24;0.63;;;0.60;;
48871;SDS011;36154;51.674;7.824;2023-12-22T01:00:50;0.90;;;0.60;;
48871;SDS011;36154;51.674;7.824;2023-12-22T01:03:15;1.60;;;0.60;;
48871;SDS011;36154;51.674;7.824;2023-12-22T01:05:40;0.60;;;0.50;;
48871;SDS011;36154;51.674;7.824;2023-12-22T01:08:06;1.08;;;0.73;;
48871;SDS011;36154;51.674;7.824;2023-12-22T01:10:31;0.88;;;0.60;;
48871;SDS011;36154;51.674;7.824;2023-12-22T01:12:56;0.60;;;0.50;;
48871;SDS011;36154;51.674;7.824;2023-12-22T01:15:22;1.27;;;0.75;;
48871;SDS011;36154;51.674;7.824;2023-12-22T01:17:47;0.82;;;0.70;;
48871;SDS011;36154;51.674;7.824;2023-12-22T01:20:13;0.85;;;0.77;;
48871;SDS011;36154;51.674;7.824;2023-12-22T01:22:38;1.27;;;0.50;;
48871;SDS011;36154;51.674;7.824;2023-12-22T01:25:04;0.80;;;0.60;;
48871;SDS011;36154;51.674;7.824;2023-12-22T01:27:30;1.15;;;0.50;;
48871;SDS011;36154;51.674;7.824;2023-12-22T01:29:56;0.90;;;0.68;;
48871;SDS011;36154;51.674;7.824;2023-12-22T01:32:21;0.75;;;0.50;;
48871;SDS011;36154;51.674;7.824;2023-12-22T01:34:46;0.70;;;0.43;;
48871;SDS011;36154;51.674;7.824;2023-12-22T01:37:12;1.05;;;0.60;;
48871;SDS011;36154;51.674;7.824;2023-12-22T01:39:37;0.98;;;0.63;;
48871;SDS011;36154;51.674;7.824;2023-12-22T01:42:02;1.58;;;0.60;;
48871;SDS011;36154;51.674;7.824;2023-12-22T01:44:28;2.17;;;0.50;;
48871;SDS011;36154;51.674;7.824;2023-12-22T01:46:53;0.70;;;0.65;;
48871;SDS011;36154;51.674;7.824;2023-12-22T01:49:19;0.90;;;0.50;;
48871;SDS011;36154;51.674;7.824;2023-12-22T01:51:46;1.88;;;0.32;;
48871;SDS011;36154;51.674;7.824;2023-12-22T01:54:11;1.48;;;0.50;;
48871;SDS011;36154;51.674;7.824;2023-12-22T01:56:38;0.65;;;0.52;;
48871;SDS011;36154;51.674;7.824;2023-12-22T01:59:04;0.70;;;0.57;;
48871;SDS011;36154;51.674;7.824;2023-12-22T02:01:29;2.75;;;0.80;;
48871;SDS011;36154;51.674;7.824;2023-12-22T02:03:56;0.88;;;0.40;;
48871;SDS011;36154;51.674;7.824;2023-12-22T02:06:22;1.15;;;0.50;;
48871;SDS011;36154;51.674;7.824;2023-12-22T02:08:48;1.02;;;0.57;;
48871;SDS011;36154;51.674;7.824;2023-12-22T02:11:14;1.15;;;0.68;;
48871;SDS011;36154;51.674;7.824;2023-12-22T02:13:40;0.80;;;0.57;;
48871;SDS011;36154;51.674;7.824;2023-12-22T02:16:18;0.68;;;0.40;;
48871;SDS011;36154;51.674;7.824;2023-12-22T02:18:50;0.40;;;0.40;;
48871;SDS011;36154;51.674;7.824;2023-12-22T02:21:20;0.57;;;0.50;;
48871;SDS011;36154;51.674;7.824;2023-12-22T02:23:47;0.60;;;0.30;;
48871;SDS011;36154;51.674;7.824;2023-12-22T02:26:14;0.70;;;0.43;;
48871;SDS011;36154;51.674;7.824;2023-12-22T02:28:46;0.73;;;0.47;;
48871;SDS011;36154;51.674;7.824;2023-12-22T02:31:27;0.65;;;0.40;;
48871;SDS011;36154;51.674;7.824;2023-12-22T02:34:03;1.13;;;0.45;;
48871;SDS011;36154;51.674;7.824;2023-12-22T02:36:32;0.50;;;0.40;;
48871;SDS011;36154;51.674;7.824;2023-12-22T02:39:01;0.43;;;0.28;;
48871;SDS011;36154;51.674;7.824;2023-12-22T02:41:27;0.77;;;0.40;;
48871;SDS011;36154;51.674;7.824;2023-12-22T02:43:52;0.50;;;0.30;;
48871;SDS011;36154;51.674;7.824;2023-12-22T02:46:18;0.55;;;0.40;;
48871;SDS011;36154;51.674;7.824;2023-12-22T02:48:43;0.70;;;0.50;;
48871;SDS011;36154;51.674;7.824;2023-12-22T02:51:08;0.68;;;0.50;;
48871;SDS011;36154;51.674;7.824;2023-12-22T02:53:34;0.50;;;0.40;;
48871;SDS011;36154;51.674;7.824;2023-12-22T02:55:59;0.73;;;0.40;;
48871;SDS011;36154;51.674;7.824;2023-12-22T02:58:24;1.67;;;0.40;;
48871;SDS011;36154;51.674;7.824;2023-12-22T03:00:49;1.40;;;0.55;;
48871;SDS011;36154;51.674;7.824;2023-12-22T03:03:15;0.50;;;0.30;;
48871;SDS011;36154;51.674;7.824;2023-12-22T03:05:40;0.63;;;0.30;;
48871;SDS011;36154;51.674;7.824;2023-12-22T03:08:05;0.95;;;0.40;;
48871;SDS011;36154;51.674;7.824;2023-12-22T03:10:30;2.45;;;0.70;;
48871;SDS011;36154;51.674;7.824;2023-12-22T03:12:56;0.70;;;0.40;;
48871;SDS011;36154;51.674;7.824;2023-12-22T03:15:21;0.57;;;0.47;;
48871;SDS011;36154;51.674;7.824;2023-12-22T03:17:46;1.05;;;0.50;;
48871;SDS011;36154;51.674;7.824;2023-12-22T03:20:12;2.63;;;0.40;;
48871;SDS011;36154;51.674;7.824;2023-12-22T03:22:37;0.50;;;0.40;;
48871;SDS011;36154;51.674;7.824;2023-12-22T03:25:02;0.50;;;0.35;;
48871;SDS011;36154;51.674;7.824;2023-12-22T03:27:28;1.13;;;0.32;;
48871;SDS011;36154;51.674;7.824;2023-12-22T03:29:53;0.30;;;0.20;;
48871;SDS011;36154;51.674;7.824;2023-12-22T03:32:18;0.60;;;0.30;;
48871;SDS011;36154;51.674;7.824;2023-12-22T03:34:44;0.30;;;0.20;;
48871;SDS011;36154;51.674;7.824;2023-12-22T03:37:09;0.73;;;0.40;;
48871;SDS011;36154;51.674;7.824;2023-12-22T03:39:35;0.30;;;0.25;;
48871;SDS011;36154;51.674;7.824;2023-12-22T03:42:00;0.55;;;0.40;;
48871;SDS011;36154;51.674;7.824;2023-12-22T03:44:25;0.93;;;0.40;;
48871;SDS011;36154;51.674;7.824;2023-12-22T03:46:50;0.55;;;0.30;;
48871;SDS011;36154;51.674;7.824;2023-12-22T03:49:16;0.85;;;0.40;;
48871;SDS011;36154;51.674;7.824;2023-12-22T03:51:42;0.55;;;0.25;;
48871;SDS011;36154;51.674;7.824;2023-12-22T03:54:08;0.45;;;0.30;;
48871;SDS011;36154;51.674;7.824;2023-12-22T03:56:33;0.93;;;0.38;;
48871;SDS011;36154;51.674;7.824;2023-12-22T03:58:58;0.20;;;0.20;;
48871;SDS011;36154;51.674;7.824;2023-12-22T04:01:24;0.70;;;0.35;;
48871;SDS011;36154;51.674;7.824;2023-12-22T04:03:49;1.10;;;0.30;;
48871;SDS011;36154;51.674;7.824;2023-12-22T04:06:14;0.47;;;0.30;;
48871;SDS011;36154;51.674;7.824;2023-12-22T04:08:39;0.57;;;0.30;;
48871;SDS011;36154;51.674;7.824;2023-12-22T04:11:05;0.52;;;0.38;;
48871;SDS011;36154;51.674;7.824;2023-12-22T04:13:30;0.45;;;0.20;;
48871;SDS011;36154;51.674;7.824;2023-12-22T04:15:55;0.52;;;0.35;;
48871;SDS011;36154;51.674;7.824;2023-12-22T04:18:21;0.45;;;0.20;;
48871;SDS011;36154;51.674;7.824;2023-12-22T04:20:46;0.35;;;0.30;;
48871;SDS011;36154;51.674;7.824;2023-12-22T04:23:11;0.40;;;0.25;;
48871;SDS011;36154;51.674;7.824;2023-12-22T04:25:37;0.30;;;0.20;;
48871;SDS011;36154;51.674;7.824;2023-12-22T04:28:02;1.27;;;0.30;;
48871;SDS011;36154;51.674;7.824;2023-12-22T04:30:27;0.73;;;0.40;;
48871;SDS011;36154;51.674;7.824;2023-12-22T04:32:53;0.32;;;0.25;;
48871;SDS011;36154;51.674;7.824;2023-12-22T04:35:18;1.17;;;0.35;;
48871;SDS011;36154;51.674;7.824;2023-12-22T04:37:43;0.73;;;0.40;;
48871;SDS011;36154;51.674;7.824;2023-12-22T04:40:09;0.52;;;0.20;;
48871;SDS011;36154;51.674;7.824;2023-12-22T04:42:34;0.70;;;0.30;;
48871;SDS011;36154;51.674;7.824;2023-12-22T04:45:00;0.22;;;0.20;;
48871;SDS011;36154;51.674;7.824;2023-12-22T04:47:25;0.32;;;0.32;;
48871;SDS011;36154;51.674;7.824;2023-12-22T04:49:50;0.35;;;0.30;;
48871;SDS011;36154;51.674;7.824;2023-12-22T04:52:16;0.30;;;0.20;;
48871;SDS011;36154;51.674;7.824;2023-12-22T04:54:41;0.47;;;0.40;;
48871;SDS011;36154;51.674;7.824;2023-12-22T04:57:06;0.88;;;0.30;;
48871;SDS011;36154;51.674;7.824;2023-12-22T04:59:31;2.20;;;0.30;;
48871;SDS011;36154;51.674;7.824;2023-12-22T05:01:57;0.57;;;0.40;;
48871;SDS011;36154;51.674;7.824;2023-12-22T05:04:22;0.65;;;0.22;;
48871;SDS011;36154;51.674;7.824;2023-12-22T05:06:48;0.20;;;0.20;;
48871;SDS011;36154;51.674;7.824;2023-12-22T05:09:14;0.38;;;0.30;;
48871;SDS011;36154;51.674;7.824;2023-12-22T05:11:40;0.40;;;0.20;;
48871;SDS011;36154;51.674;7.824;2023-12-22T05:14:05;0.20;;;0.20;;
48871;SDS011;36154;51.674;7.824;2023-12-22T05:16:30;0.30;;;0.20;;
48871;SDS011;36154;51.674;7.824;2023-12-22T05:18:59;0.50;;;0.25;;
48871;SDS011;36154;51.674;7.824;2023-12-22T05:21:24;0.55;;;0.20;;
48871;SDS011;36154;51.674;7.824;2023-12-22T05:23:49;0.20;;;0.20;;
48871;SDS011;36154;51.674;7.824;2023-12-22T05:26:18;0.15;;;0.10;;
48871;SDS011;36154;51.674;7.824;2023-12-22T05:28:47;0.55;;;0.20;;
48871;SDS011;36154;51.674;7.824;2023-12-22T05:31:14;0.65;;;0.30;;
48871;SDS011;36154;51.674;7.824;2023-12-22T05:33:40;0.70;;;0.25;;
48871;SDS011;36154;51.674;7.824;2023-12-22T05:36:06;0.28;;;0.20;;
48871;SDS011;36154;51.674;7.824;2023-12-22T05:38:31;0.20;;;0.20;;
48871;SDS011;36154;51.674;7.824;2023-12-22T05:40:57;0.30;;;0.20;;
48871;SDS011;36154;51.674;7.824;2023-12-22T05:43:22;0.68;;;0.30;;
48871;SDS011;36154;51.674;7.824;2023-12-22T05:45:47;0.32;;;0.22;;
48871;SDS011;36154;51.674;7.824;2023-12-22T05:48:13;0.30;;;0.30;;
48871;SDS011;36154;51.674;7.824;2023-12-22T05:50:38;0.20;;;0.20;;
48871;SDS011;36154;51.674;7.824;2023-12-22T05:53:03;0.30;;;0.30;;
48871;SDS011;36154;51.674;7.824;2023-12-22T05:55:28;0.55;;;0.25;;
48871;SDS011;36154;51.674;7.824;2023-12-22T05:57:54;1.13;;;0.30;;
48871;SDS011;36154;51.674;7.824;2023-12-22T06:00:20;1.63;;;0.30;;
48871;SDS011;36154;51.674;7.824;2023-12-22T06:02:46;0.90;;;0.47;;
48871;SDS011;36154;51.674;7.824;2023-12-22T06:05:11;0.63;;;0.30;;
48871;SDS011;36154;51.674;7.824;2023-12-22T06:07:36;0.75;;;0.40;;
48871;SDS011;36154;51.674;7.824;2023-12-22T06:10:02;0.52;;;0.30;;
48871;SDS011;36154;51.674;7.824;2023-12-22T06:12:27;0.38;;;0.30;;
48871;SDS011;36154;51.674;7.824;2023-12-22T06:14:52;0.38;;;0.30;;
48871;SDS011;36154;51.674;7.824;2023-12-22T06:17:18;0.47;;;0.30;;
48871;SDS011;36154;51.674;7.824;2023-12-22T06:19:43;1.05;;;0.30;;
48871;SDS011;36154;51.674;7.824;2023-12-22T06:22:08;0.90;;;0.40;;
48871;SDS011;36154;51.674;7.824;2023-12-22T06:24:35;0.70;;;0.30;;
48871;SDS011;36154;51.674;7.824;2023-12-22T06:27:01;0.55;;;0.20;;
48871;SDS011;36154;51.674;7.824;2023-12-22T06:29:26;0.63;;;0.30;;
48871;SDS011;36154;51.674;7.824;2023-12-22T06:31:51;0.45;;;0.28;;
48871;SDS011;36154;51.674;7.824;2023-12-22T06:34:17;0.80;;;0.20;;
48871;SDS011;36154;51.674;7.824;2023-12-22T06:36:42;0.30;;;0.20;;
48871;SDS011;36154;51.674;7.824;2023-12-22T06:39:08;0.85;;;0.30;;
48871;SDS011;36154;51.674;7.824;2023-12-22T06:41:33;0.60;;;0.25;;
48871;SDS011;36154;51.674;7.824;2023-12-22T06:43:59;0.40;;;0.30;;
48871;SDS011;36154;51.674;7.824;2023-12-22T06:46:24;0.40;;;0.22;;
48871;SDS011;36154;51.674;7.824;2023-12-22T06:48:51;1.25;;;0.30;;
48871;SDS011;36154;51.674;7.824;2023-12-22T06:51:17;0.22;;;0.20;;
48871;SDS011;36154;51.674;7.824;2023-12-22T06:53:43;0.45;;;0.22;;
48871;SDS011;36154;51.674;7.824;2023-12-22T06:56:19;0.45;;;0.20;;
48871;SDS011;36154;51.674;7.824;2023-12-22T06:58:46;0.43;;;0.30;;
48871;SDS011;36154;51.674;7.824;2023-12-22T07:01:20;1.08;;;0.30;;
48871;SDS011;36154;51.674;7.824;2023-12-22T07:03:45;0.38;;;0.20;;
48871;SDS011;36154;51.674;7.824;2023-12-22T07:06:11;0.43;;;0.30;;
48871;SDS011;36154;51.674;7.824;2023-12-22T07:08:36;0.55;;;0.30;;
48871;SDS011;36154;51.674;7.824;2023-12-22T07:11:02;0.30;;;0.30;;
48871;SDS011;36154;51.674;7.824;2023-12-22T07:13:27;0.30;;;0.20;;
48871;SDS011;36154;51.674;7.824;2023-12-22T07:15:52;0.45;;;0.20;;
48871;SDS011;36154;51.674;7.824;2023-12-22T07:18:17;0.35;;;0.20;;
48871;SDS011;36154;51.674;7.824;2023-12-22T07:20:43;0.40;;;0.30;;
48871;SDS011;36154;51.674;7.824;2023-12-22T07:23:09;0.43;;;0.20;;
48871;SDS011;36154;51.674;7.824;2023-12-22T07:25:38;0.77;;;0.30;;
48871;SDS011;36154;51.674;7.824;2023-12-22T07:28:04;0.40;;;0.20;;
48871;SDS011;36154;51.674;7.824;2023-12-22T07:30:30;0.20;;;0.20;;
48871;SDS011;36154;51.674;7.824;2023-12-22T07:32:55;0.73;;;0.38;;
48871;SDS011;36154;51.674;7.824;2023-12-22T07:35:20;0.30;;;0.20;;
48871;SDS011;36154;51.674;7.824;2023-12-22T07:37:46;0.70;;;0.38;;
48871;SDS011;36154;51.674;7.824;2023-12-22T07:40:11;0.45;;;0.30;;
48871;SDS011;36154;51.674;7.824;2023-12-22T07:42:37;0.30;;;0.20;;
48871;SDS011;36154;51.674;7.824;2023-12-22T07:45:03;0.22;;;0.22;;
48871;SDS011;36154;51.674;7.824;2023-12-22T07:47:29;0.40;;;0.25;;
48871;SDS011;36154;51.674;7.824;2023-12-22T07:49:55;0.85;;;0.20;;
48871;SDS011;36154;51.674;7.824;2023-12-22T07:52:20;0.57;;;0.50;;
48871;SDS011;36154;51.674;7.824;2023-12-22T07:54:45;0.63;;;0.32;;
48871;SDS011;36154;51.674;7.824;2023-12-22T07:57:12;2.38;;;0.70;;
48871;SDS011;36154;51.674;7.824;2023-12-22T07:59:37;0.60;;;0.32;;
48871;SDS011;36154;51.674;7.824;2023-12-22T08:02:03;0.40;;;0.30;;
48871;SDS011;36154;51.674;7.824;2023-12-22T08:04:28;1.75;;;0.30;;
48871;SDS011;36154;51.674;7.824;2023-12-22T08:06:53;0.50;;;0.30;;
48871;SDS011;36154;51.674;7.824;2023-12-22T08:09:19;1.45;;;0.43;;
48871;SDS011;36154;51.674;7.824;2023-12-22T08:11:44;0.90;;;0.40;;
48871;SDS011;36154;51.674;7.824;2023-12-22T08:14:11;2.28;;;0.50;;
48871;SDS011;36154;51.674;7.824;2023-12-22T08:16:37;0.98;;;0.60;;
48871;SDS011;36154;51.674;7.824;2023-12-22T08:19:02;1.85;;;0.50;;
48871;SDS011;36154;51.674;7.824;2023-12-22T08:21:27;1.73;;;0.40;;
48871;SDS011;36154;51.674;7.824;2023-12-22T08:23:53;0.65;;;0.47;;
48871;SDS011;36154;51.674;7.824;2023-12-22T08:26:18;0.30;;;0.30;;
48871;SDS011;36154;51.674;7.824;2023-12-22T08:28:44;1.35;;;0.70;;
48871;SDS011;36154;51.674;7.824;2023-12-22T08:31:09;0.88;;;0.50;;
48871;SDS011;36154;51.674;7.824;2023-12-22T08:33:35;0.73;;;0.50;;
48871;SDS011;36154;51.674;7.824;2023-12-22T08:36:00;0.90;;;0.63;;
48871;SDS011;36154;51.674;7.824;2023-12-22T08:38:25;2.72;;;0.63;;
48871;SDS011;36154;51.674;7.824;2023-12-22T08:40:51;1.10;;;0.50;;
48871;SDS011;36154;51.674;7.824;2023-12-22T08:43:18;0.68;;;0.68;;
48871;SDS011;36154;51.674;7.824;2023-12-22T08:45:44;0.63;;;0.50;;
48871;SDS011;36154;51.674;7.824;2023-12-22T08:48:09;0.40;;;0.40;;
48871;SDS011;36154;51.674;7.824;2023-12-22T08:50:34;0.82;;;0.40;;
48871;SDS011;36154;51.674;7.824;2023-12-22T08:53:00;0.60;;;0.60;;
48871;SDS011;36154;51.674;7.824;2023-12-22T08:55:25;1.05;;;0.75;;
48871;SDS011;36154;51.674;7.824;2023-12-22T08:57:50;1.17;;;0.63;;
48871;SDS011;36154;51.674;7.824;2023-12-22T09:00:16;0.82;;;0.77;;
48871;SDS011;36154;51.674;7.824;2023-12-22T09:02:41;1.00;;;0.63;;
48871;SDS011;36154;51.674;7.824;2023-12-22T09:05:06;1.10;;;0.60;;
48871;SDS011;36154;51.674;7.824;2023-12-22T09:07:32;1.15;;;0.60;;
48871;SDS011;36154;51.674;7.824;2023-12-22T09:09:57;1.52;;;0.50;;
48871;SDS011;36154;51.674;7.824;2023-12-22T09:12:22;0.95;;;0.50;;
48871;SDS011;36154;51.674;7.824;2023-12-22T09:14:49;0.50;;;0.45;;
48871;SDS011;36154;51.674;7.824;2023-12-22T09:17:15;0.70;;;0.70;;
48871;SDS011;36154;51.674;7.824;2023-12-22T09:19:41;2.55;;;0.50;;
48871;SDS011;36154;51.674;7.824;2023-12-22T09:22:07;1.00;;;0.60;;
48871;SDS011;36154;51.674;7.824;2023-12-22T09:24:33;0.80;;;0.52;;
48871;SDS011;36154;51.674;7.824;2023-12-22T09:26:58;0.80;;;0.73;;
48871;SDS011;36154;51.674;7.824;2023-12-22T09:29:27;2.42;;;0.93;;
48871;SDS011;36154;51.674;7.824;2023-12-22T09:31:57;1.92;;;0.80;;
48871;SDS011;36154;51.674;7.824;2023-12-22T09:34:22;1.42;;;0.60;;
48871;SDS011;36154;51.674;7.824;2023-12-22T09:36:48;0.60;;;0.55;;
48871;SDS011;36154;51.674;7.824;2023-12-22T09:39:13;2.47;;;0.70;;
48871;SDS011;36154;51.674;7.824;2023-12-22T09:41:42;1.02;;;0.70;;
48871;SDS011;36154;51.674;7.824;2023-12-22T09:44:11;0.80;;;0.57;;
48871;SDS011;36154;51.674;7.824;2023-12-22T09:46:37;5.40;;;0.55;;
48871;SDS011;36154;51.674;7.824;2023-12-22T09:49:04;0.70;;;0.60;;
48871;SDS011;36154;51.674;7.824;2023-12-22T09:51:30;2.40;;;0.65;;
48871;SDS011;36154;51.674;7.824;2023-12-22T09:53:57;1.42;;;0.60;;
48871;SDS011;36154;51.674;7.824;2023-12-22T09:56:24;3.80;;;0.63;;
48871;SDS011;36154;51.674;7.824;2023-12-22T09:58:51;1.10;;;0.65;;
48871;SDS011;36154;51.674;7.824;2023-12-22T10:01:18;2.53;;;0.70;;
48871;SDS011;36154;51.674;7.824;2023-12-22T10:03:47;2.75;;;0.57;;
48871;SDS011;36154;51.674;7.824;2023-12-22T10:06:12;2.30;;;0.65;;
48871;SDS011;36154;51.674;7.824;2023-12-22T10:08:38;1.02;;;0.60;;
48871;SDS011;36154;51.674;7.824;2023-12-22T10:11:04;0.55;;;0.50;;
48871;SDS011;36154;51.674;7.824;2023-12-22T10:13:31;2.00;;;0.60;;
48871;SDS011;36154;51.674;7.824;2023-12-22T10:15:58;0.65;;;0.50;;
48871;SDS011;36154;51.674;7.824;2023-12-22T10:18:25;2.30;;;0.80;;
48871;SDS011;36154;51.674;7.824;2023-12-22T10:20:50;4.63;;;0.80;;
48871;SDS011;36154;51.674;7.824;2023-12-22T10:23:16;0.88;;;0.47;;
48871;SDS011;36154;51.674;7.824;2023-12-22T10:25:41;0.60;;;0.50;;
48871;SDS011;36154;51.674;7.824;2023-12-22T10:28:09;3.17;;;0.70;;
48871;SDS011;36154;51.674;7.824;2023-12-22T10:30:35;1.33;;;0.80;;
48871;SDS011;36154;51.674;7.824;2023-12-22T10:33:03;0.70;;;0.60;;
48871;SDS011;36154;51.674;7.824;2023-12-22T10:35:29;3.95;;;0.60;;
48871;SDS011;36154;51.674;7.824;2023-12-22T10:37:54;0.80;;;0.57;;
48871;SDS011;36154;51.674;7.824;2023-12-22T10:40:21;3.38;;;0.70;;
48871;SDS011;36154;51.674;7.824;2023-12-22T10:42:48;0.60;;;0.45;;
48871;SDS011;36154;51.674;7.824;2023-12-22T10:45:13;2.58;;;0.70;;
48871;SDS011;36154;51.674;7.824;2023-12-22T10:47:40;1.33;;;0.85;;
48871;SDS011;36154;51.674;7.824;2023-12-22T10:50:06;0.60;;;0.60;;
48871;SDS011;36154;51.674;7.824;2023-12-22T10:52:31;0.80;;;0.60;;
48871;SDS011;36154;51.674;7.824;2023-12-22T10:54:57;0.82;;;0.50;;
48871;SDS011;36154;51.674;7.824;2023-12-22T10:57:23;0.80;;;0.57;;
48871;SDS011;36154;51.674;7.824;2023-12-22T10:59:48;0.60;;;0.38;;
48871;SDS011;36154;51.674;7.824;2023-12-22T11:02:16;0.98;;;0.70;;
48871;SDS011;36154;51.674;7.824;2023-12-22T11:04:45;1.40;;;0.47;;
48871;SDS011;36154;51.674;7.824;2023-12-22T11:07:18;0.60;;;0.60;;
48871;SDS011;36154;51.674;7.824;2023-12-22T11:09:46;0.60;;;0.45;;
48871;SDS011;36154;51.674;7.824;2023-12-22T11:12:17;0.30;;;0.30;;
48871;SDS011;36154;51.674;7.824;2023-12-22T11:14:44;0.80;;;0.57;;
48871;SDS011;36154;51.674;7.824;2023-12-22T11:17:15;0.70;;;0.57;;
48871;SDS011;36154;51.674;7.824;2023-12-22T11:19:44;0.77;;;0.60;;
48871;SDS011;36154;51.674;7.824;2023-12-22T11:22:10;2.17;;;0.50;;
48871;SDS011;36154;51.674;7.824;2023-12-22T11:24:37;0.82;;;0.50;;
48871;SDS011;36154;51.674;7.824;2023-12-22T11:27:05;0.88;;;0.55;;
48871;SDS011;36154;51.674;7.824;2023-12-22T11:29:31;0.65;;;0.50;;
48871;SDS011;36154;51.674;7.824;2023-12-22T11:31:56;0.80;;;0.55;;
48871;SDS011;36154;51.674;7.824;2023-12-22T11:34:24;0.35;;;0.30;;
48871;SDS011;36154;51.674;7.824;2023-12-22T11:36:53;0.47;;;0.30;;
48871;SDS011;36154;51.674;7.824;2023-12-22T11:39:20;0.38;;;0.30;;
48871;SDS011;36154;51.674;7.824;2023-12-22T11:41:45;0.13;;;0.13;;
48871;SDS011;36154;51.674;7.824;2023-12-22T11:44:12;0.40;;;0.30;;
48871;SDS011;36154;51.674;7.824;2023-12-22T11:46:38;0.40;;;0.30;;
48871;SDS011;36154;51.674;7.824;2023-12-22T11:49:03;0.50;;;0.30;;
48871;SDS011;36154;51.674;7.824;2023-12-22T11:51:33;0.20;;;0.20;;
48871;SDS011;36154;51.674;7.824;2023-12-22T11:54:01;0.40;;;0.30;;
48871;SDS011;36154;51.674;7.824;2023-12-22T11:56:26;2.78;;;0.38;;
48871;SDS011;36154;51.674;7.824;2023-12-22T11:58:53;0.35;;;0.30;;
48871;SDS011;36154;51.674;7.824;2023-12-22T12:01:20;1.58;;;0.30;;
48871;SDS011;36154;51.674;7.824;2023-12-22T12:03:52;0.35;;;0.35;;
48871;SDS011;36154;51.674;7.824;2023-12-22T12:08:56;0.50;;;0.40;;
48871;SDS011;36154;51.674;7.824;2023-12-22T12:11:23;2.42;;;0.50;;
48871;SDS011;36154;51.674;7.824;2023-12-22T12:13:49;0.50;;;0.20;;
48871;SDS011;36154;51.674;7.824;2023-12-22T12:16:21;0.43;;;0.28;;
48871;SDS011;36154;51.674;7.824;2023-12-22T12:18:47;0.77;;;0.20;;
48871;SDS011;36154;51.674;7.824;2023-12-22T12:21:12;0.40;;;0.20;;
48871;SDS011;36154;51.674;7.824;2023-12-22T12:23:38;0.35;;;0.35;;
48871;SDS011;36154;51.674;7.824;2023-12-22T12:26:06;0.28;;;0.20;;
48871;SDS011;36154;51.674;7.824;2023-12-22T12:28:32;0.30;;;0.30;;
48871;SDS011;36154;51.674;7.824;2023-12-22T12:33:25;1.70;;;0.30;;
48871;SDS011;36154;51.674;7.824;2023-12-22T12:35:52;0.50;;;0.30;;
48871;SDS011;36154;51.674;7.824;2023-12-22T12:38:21;0.65;;;0.38;;
48871;SDS011;36154;51.674;7.824;2023-12-22T12:40:50;0.60;;;0.30;;
48871;SDS011;36154;51.674;7.824;2023-12-22T12:43:16;1.17;;;0.35;;
48871;SDS011;36154;51.674;7.824;2023-12-22T12:45:42;0.50;;;0.30;;
48871;SDS011;36154;51.674;7.824;2023-12-22T12:48:08;1.13;;;0.30;;
48871;SDS011;36154;51.674;7.824;2023-12-22T12:50:33;0.52;;;0.25;;
48871;SDS011;36154;51.674;7.824;2023-12-22T12:52:58;0.30;;;0.30;;
48871;SDS011;36154;51.674;7.824;2023-12-22T12:55:24;0.40;;;0.25;;
48871;SDS011;36154;51.674;7.824;2023-12-22T12:57:53;1.08;;;0.40;;
48871;SDS011;36154;51.674;7.824;2023-12-22T13:00:24;0.30;;;0.30;;
48871;SDS011;36154;51.674;7.824;2023-12-22T13:02:50;0.40;;;0.30;;
48871;SDS011;36154;51.674;7.824;2023-12-22T13:05:22;0.70;;;0.20;;
48871;SDS011;36154;51.674;7.824;2023-12-22T13:07:48;0.90;;;0.30;;
48871;SDS011;36154;51.674;7.824;2023-12-22T13:10:23;1.70;;;0.38;;
48871;SDS011;36154;51.674;7.824;2023-12-22T13:12:52;2.05;;;0.70;;
48871;SDS011;36154;51.674;7.824;2023-12-22T13:15:19;0.20;;;0.20;;
48871;SDS011;36154;51.674;7.824;2023-12-22T13:17:46;0.25;;;0.20;;
48871;SDS011;36154;51.674;7.824;2023-12-22T13:20:12;0.70;;;0.40;;
48871;SDS011;36154;51.674;7.824;2023-12-22T13:22:37;1.05;;;0.30;;
48871;SDS011;36154;51.674;7.824;2023-12-22T13:25:03;0.20;;;0.20;;
48871;SDS011;36154;51.674;7.824;2023-12-22T13:27:28;1.05;;;0.25;;
48871;SDS011;36154;51.674;7.824;2023-12-22T13:29:54;0.32;;;0.32;;
48871;SDS011;36154;51.674;7.824;2023-12-22T13:32:20;0.50;;;0.40;;
48871;SDS011;36154;51.674;7.824;2023-12-22T13:34:52;0.30;;;0.30;;
48871;SDS011;36154;51.674;7.824;2023-12-22T13:37:19;0.55;;;0.40;;
48871;SDS011;36154;51.674;7.824;2023-12-22T13:39:45;0.30;;;0.30;;
48871;SDS011;36154;51.674;7.824;2023-12-22T13:42:18;0.55;;;0.20;;
48871;SDS011;36154;51.674;7.824;2023-12-22T13:44:47;0.30;;;0.30;;
48871;SDS011;36154;51.674;7.824;2023-12-22T13:47:15;0.45;;;0.30;;
48871;SDS011;36154;51.674;7.824;2023-12-22T13:49:41;0.43;;;0.20;;
48871;SDS011;36154;51.674;7.824;2023-12-22T13:52:07;0.43;;;0.30;;
48871;SDS011;36154;51.674;7.824;2023-12-22T13:54:33;0.25;;;0.20;;
48871;SDS011;36154;51.674;7.824;2023-12-22T13:56:58;0.25;;;0.25;;
48871;SDS011;36154;51.674;7.824;2023-12-22T13:59:30;0.80;;;0.30;;
48871;SDS011;36154;51.674;7.824;2023-12-22T14:01:57;2.13;;;0.30;;
48871;SDS011;36154;51.674;7.824;2023-12-22T14:04:22;0.13;;;0.13;;
48871;SDS011;36154;51.674;7.824;2023-12-22T14:06:47;0.30;;;0.20;;
48871;SDS011;36154;51.674;7.824;2023-12-22T14:09:13;0.28;;;0.28;;
48871;SDS011;36154;51.674;7.824;2023-12-22T14:11:38;0.30;;;0.20;;
48871;SDS011;36154;51.674;7.824;2023-12-22T14:14:03;0.40;;;0.30;;
48871;SDS011;36154;51.674;7.824;2023-12-22T14:16:29;0.28;;;0.20;;
48871;SDS011;36154;51.674;7.824;2023-12-22T14:18:54;0.20;;;0.20;;
48871;SDS011;36154;51.674;7.824;2023-12-22T14:21:20;0.98;;;0.20;;
48871;SDS011;36154;51.674;7.824;2023-12-22T14:23:45;0.20;;;0.20;;
48871;SDS011;36154;51.674;7.824;2023-12-22T14:26:10;0.70;;;0.30;;
48871;SDS011;36154;51.674;7.824;2023-12-22T14:28:36;0.45;;;0.30;;
48871;SDS011;36154;51.674;7.824;2023-12-22T14:31:01;0.30;;;0.20;;
48871;SDS011;36154;51.674;7.824;2023-12-22T14:33:26;0.30;;;0.30;;
48871;SDS011;36154;51.674;7.824;2023-12-22T14:35:52;0.40;;;0.25;;
48871;SDS011;36154;51.674;7.824;2023-12-22T14:38:17;0.35;;;0.20;;
48871;SDS011;36154;51.674;7.824;2023-12-22T14:40:43;0.47;;;0.30;;
48871;SDS011;36154;51.674;7.824;2023-12-22T14:43:08;0.32;;;0.25;;
48871;SDS011;36154;51.674;7.824;2023-12-22T14:45:33;0.50;;;0.30;;